Time;durP1;ratioP1;P1;durP2;ratioP2;P2;SDS_P1;SDS_P2;PMS_P1;PMS_P2;Temp;Humidity;BMP_temperature;BMP_pressure;BME280_temperature;BME280_humidity;BME280_pressure;Samples;Min_cycle;Max_cycle;Signal;HPM_P1;HPM_P2
2023/05/02 00:01:07;;;;;;;26.48;12.23;;;;;;;11.44;100.00;101975.09;4897080;29;20019;-90
2023/05/02 00:03:33;;;;;;;30.88;12.88;;;;;;;11.44;100.00;101985.47;4915285;29;20031;-90
2023/05/02 00:05:59;;;;;;;31.23;12.52;;;;;;;11.40;100.00;101984.63;4914310;29;20114;-89
2023/05/02 00:08:24;;;;;;;30.77;13.38;;;;;;;11.41;100.00;101991.53;4914939;29;20035;-90
2023/05/02 00:10:50;;;;;;;31.25;13.35;;;;;;;11.39;100.00;102000.25;4898981;29;20036;-90
2023/05/02 00:13:15;;;;;;;28.80;13.32;;;;;;;11.39;100.00;101995.06;4912990;29;20036;-89
2023/05/02 00:15:41;;;;;;;31.08;12.68;;;;;;;11.39;100.00;102002.84;4914530;29;20039;-90
2023/05/02 00:18:06;;;;;;;31.35;13.05;;;;;;;11.35;100.00;102001.97;4898077;29;20028;-89
2023/05/02 00:20:31;;;;;;;26.63;11.73;;;;;;;11.29;100.00;101990.78;4914028;29;20754;-90
2023/05/02 00:22:57;;;;;;;26.92;11.57;;;;;;;11.31;100.00;101997.72;4915354;29;20473;-90
2023/05/02 00:25:22;;;;;;;27.95;12.18;;;;;;;11.31;100.00;101999.44;4913033;29;20040;-90
2023/05/02 00:27:49;;;;;;;27.42;12.02;;;;;;;11.25;100.00;102000.34;4914675;29;20060;-89
2023/05/02 00:30:15;;;;;;;26.85;11.57;;;;;;;11.26;100.00;102001.22;4897426;29;20028;-90
2023/05/02 00:32:41;;;;;;;27.38;11.23;;;;;;;11.25;100.00;102009.88;4914561;29;20695;-90
2023/05/02 00:35:07;;;;;;;24.58;11.00;;;;;;;11.20;100.00;102002.09;4912560;29;20687;-89
2023/05/02 00:37:35;;;;;;;25.88;10.90;;;;;;;11.21;100.00;102010.75;4918143;29;20040;-89
2023/05/02 00:40:00;;;;;;;27.20;11.07;;;;;;;11.17;100.00;102009.94;4914213;29;20038;-90
2023/05/02 00:42:28;;;;;;;26.63;11.48;;;;;;;11.17;100.00;102003.88;4906059;29;20029;-89
2023/05/02 00:44:53;;;;;;;30.45;12.82;;;;;;;11.17;100.00;102007.34;4915118;29;20493;-89
2023/05/02 00:47:18;;;;;;;26.67;11.85;;;;;;;11.18;100.00;102008.19;4915004;29;20833;-90
2023/05/02 00:49:44;;;;;;;26.48;11.68;;;;;;;11.15;100.00;102011.66;4913585;29;20134;-90
2023/05/02 00:52:09;;;;;;;28.13;12.10;;;;;;;11.17;100.00;102009.94;4895854;29;20067;-90
2023/05/02 00:54:38;;;;;;;31.10;12.82;;;;;;;11.17;100.00;102015.13;4913660;29;20036;-90
2023/05/02 00:57:03;;;;;;;29.20;12.70;;;;;;;11.13;100.00;102009.94;4895474;29;20055;-89
2023/05/02 00:59:28;;;;;;;32.22;12.65;;;;;;;11.11;100.00;102006.53;4914131;29;20509;-88
2023/05/02 01:02:03;;;;;;;30.25;11.88;;;;;;;11.14;100.00;102016.84;4914275;29;20031;-90
2023/05/02 01:05:00;;;;;;;26.80;11.65;;;;;;;11.13;100.00;102016.00;4913309;29;20516;-89
2023/05/02 01:07:34;;;;;;;26.02;10.55;;;;;;;11.09;100.00;102017.75;4905155;29;20118;-90
2023/05/02 01:10:24;;;;;;;25.38;10.23;;;;;;;11.05;100.00;102020.41;4913767;29;20064;-88
2023/05/02 01:13:02;;;;;;;22.27;10.32;;;;;;;10.99;100.00;102015.22;4900796;29;20028;-87
2023/05/02 01:15:29;;;;;;;20.67;8.32;;;;;;;10.98;100.00;102016.13;4918701;29;20031;-87
2023/05/02 01:17:56;;;;;;;20.25;8.73;;;;;;;10.94;100.00;102011.81;4900495;29;20028;-87
2023/05/02 01:20:25;;;;;;;22.13;8.95;;;;;;;10.93;100.00;102008.34;4912928;29;20028;-87
2023/05/02 01:22:51;;;;;;;18.98;9.18;;;;;;;10.93;100.00;102018.72;4913355;29;20072;-87
2023/05/02 01:25:25;;;;;;;21.90;9.43;;;;;;;10.95;100.00;102016.13;4898330;29;20040;-87
2023/05/02 01:28:18;;;;;;;21.95;9.00;;;;;;;10.95;100.00;102022.19;4917452;29;20083;-87
2023/05/02 01:30:45;;;;;;;18.52;8.85;;;;;;;10.87;100.00;102012.72;4915896;29;20643;-87
2023/05/02 01:33:13;;;;;;;21.30;8.85;;;;;;;10.84;100.00;102010.16;4916487;29;20595;-87
2023/05/02 01:35:41;;;;;;;20.45;8.85;;;;;;;10.85;100.00;102020.50;4917126;29;20139;-87
2023/05/02 01:38:07;;;;;;;21.60;8.88;;;;;;;10.79;100.00;102010.16;4918019;29;20038;-87
2023/05/02 01:40:35;;;;;;;21.40;9.30;;;;;;;10.83;100.00;102019.66;4907014;29;20036;-87
2023/05/02 01:43:04;;;;;;;20.15;9.07;;;;;;;10.84;100.00;102023.13;4916596;29;20039;-88
2023/05/02 01:45:33;;;;;;;20.73;9.07;;;;;;;10.84;100.00;102018.81;4919724;29;20059;-88
2023/05/02 01:48:00;;;;;;;22.08;9.30;;;;;;;10.85;100.00;102022.25;4916961;29;20040;-87
2023/05/02 01:50:26;;;;;;;22.52;9.07;;;;;;;10.81;100.00;102016.22;4908427;29;20135;-87
2023/05/02 01:52:53;;;;;;;19.95;8.98;;;;;;;10.84;100.00;102028.31;4899461;29;20111;-87
2023/05/02 01:55:19;;;;;;;23.30;9.80;;;;;;;10.87;100.00;102033.47;4900712;29;20473;-87
2023/05/02 01:57:47;;;;;;;19.23;9.35;;;;;;;10.86;100.00;102029.16;4915014;29;20031;-88
2023/05/02 02:00:16;;;;;;;21.70;9.82;;;;;;;10.86;100.00;102040.38;4917087;29;20087;-87
2023/05/02 02:02:42;;;;;;;22.95;10.18;;;;;;;10.84;100.00;102039.56;4898790;29;20123;-87
2023/05/02 02:05:09;;;;;;;22.45;10.13;;;;;;;10.84;100.00;102041.28;4898276;29;20032;-87
2023/05/02 02:07:35;;;;;;;24.90;11.00;;;;;;;10.83;100.00;102047.34;4916023;29;20030;-87
2023/05/02 02:10:00;;;;;;;23.85;10.45;;;;;;;10.82;100.00;102043.00;4915665;29;20032;-90
2023/05/02 02:12:29;;;;;;;24.95;11.40;;;;;;;10.81;100.00;102043.88;4916224;29;20111;-90
2023/05/02 02:14:59;;;;;;;24.92;12.35;;;;;;;10.77;100.00;102042.19;4917200;29;20036;-89
2023/05/02 02:17:29;;;;;;;25.58;11.98;;;;;;;10.81;100.00;102051.66;4900643;29;20053;-90
2023/05/02 02:19:55;;;;;;;24.17;11.77;;;;;;;10.82;100.00;102055.97;4916265;29;20106;-89
2023/05/02 02:22:25;;;;;;;23.58;11.63;;;;;;;10.82;100.00;102058.56;4915781;29;20039;-90
2023/05/02 02:24:52;;;;;;;26.67;12.48;;;;;;;10.83;100.00;102061.16;4915466;29;21345;-90
2023/05/02 02:27:18;;;;;;;26.33;12.45;;;;;;;10.80;100.00;102052.53;4915769;29;20031;-89
2023/05/02 02:29:43;;;;;;;27.67;12.77;;;;;;;10.86;100.00;102061.13;4916353;29;20032;-90
2023/05/02 02:32:08;;;;;;;27.23;12.93;;;;;;;10.86;100.00;102058.53;4916187;29;20039;-89
2023/05/02 02:34:34;;;;;;;27.98;13.05;;;;;;;10.88;100.00;102059.41;4915817;29;20163;-89
2023/05/02 02:37:01;;;;;;;27.25;12.32;;;;;;;10.90;100.00;102062.88;4898217;29;20059;-90
2023/05/02 02:39:40;;;;;;;25.80;13.00;;;;;;;10.89;100.00;102063.72;4901507;29;20413;-89
2023/05/02 02:42:13;;;;;;;25.45;11.48;;;;;;;10.87;100.00;102065.47;4916196;29;20662;-90
2023/05/02 02:45:23;;;;;;;23.75;11.90;;;;;;;10.84;100.00;102057.72;4915906;29;20808;-90
2023/05/02 02:48:19;;;;;;;24.00;12.00;;;;;;;10.90;100.00;102068.06;4907652;29;20032;-89
2023/05/02 02:51:05;;;;;;;25.08;12.13;;;;;;;10.88;100.00;102067.19;4901636;29;20134;-90
2023/05/02 02:53:37;;;;;;;25.02;12.75;;;;;;;10.84;100.00;102056.84;4904571;29;20036;-89
2023/05/02 02:56:21;;;;;;;25.10;12.00;;;;;;;10.88;100.00;102067.19;4915433;29;20046;-89
2023/05/02 02:59:01;;;;;;;24.58;12.00;;;;;;;10.90;100.00;102070.66;4899176;29;20630;-89
2023/05/02 03:01:30;;;;;;;24.35;11.38;;;;;;;10.89;100.00;102078.44;4915600;29;20028;-89
2023/05/02 03:03:56;;;;;;;20.38;10.65;;;;;;;10.87;100.00;102070.66;4902185;29;20036;-89
2023/05/02 03:06:22;;;;;;;23.50;11.48;;;;;;;10.87;100.00;102086.22;4916000;29;20038;-90
2023/05/02 03:08:47;;;;;;;24.13;11.70;;;;;;;10.89;100.00;102088.81;4914913;29;20068;-89
2023/05/02 03:11:13;;;;;;;21.17;11.43;;;;;;;10.88;100.00;102087.94;4914649;29;20027;-89
2023/05/02 03:13:38;;;;;;;24.27;12.00;;;;;;;10.89;100.00;102091.41;4899647;29;20291;-90
2023/05/02 03:16:29;;;;;;;25.42;12.25;;;;;;;10.92;100.00;102091.38;4898279;29;20098;-90
2023/05/02 03:18:54;;;;;;;25.30;12.50;;;;;;;10.86;100.00;102096.59;4916015;29;20079;-89
2023/05/02 03:21:20;;;;;;;24.85;11.43;;;;;;;10.86;100.00;102099.19;4914552;29;21329;-89
2023/05/02 03:23:45;;;;;;;23.70;12.07;;;;;;;10.79;100.00;102095.75;4913789;29;20803;-89
2023/05/02 03:26:11;;;;;;;25.65;12.43;;;;;;;10.85;100.00;102106.09;4916448;29;20915;-89
2023/05/02 03:28:36;;;;;;;22.90;13.05;;;;;;;10.79;100.00;102113.03;4900233;29;20075;-88
2023/05/02 03:31:02;;;;;;;24.95;12.10;;;;;;;10.81;100.00;102116.50;4914564;29;20118;-90
2023/05/02 03:33:27;;;;;;;19.10;9.13;;;;;;;10.79;100.00;102132.06;4914518;29;20036;-89
2023/05/02 03:35:52;;;;;;;15.18;7.60;;;;;;;10.73;100.00;102134.69;4900527;29;20126;-89
2023/05/02 03:38:18;;;;;;;18.67;7.65;;;;;;;10.66;100.00;102132.97;4915591;29;20034;-89
2023/05/02 03:40:43;;;;;;;15.63;7.32;;;;;;;10.64;100.00;102140.75;4898828;29;20079;-89
2023/05/02 03:43:08;;;;;;;17.48;7.22;;;;;;;10.59;100.00;102139.06;4909656;29;20036;-90
2023/05/02 03:45:34;;;;;;;13.30;6.72;;;;;;;10.59;100.00;102147.69;4912903;29;20027;-89
2023/05/02 03:47:59;;;;;;;14.75;6.57;;;;;;;10.55;100.00;102133.03;4897031;29;20039;-89
2023/05/02 03:50:25;;;;;;;17.05;7.07;;;;;;;10.51;100.00;102140.78;4915335;29;20528;-89
2023/05/02 03:52:50;;;;;;;11.07;6.00;;;;;;;10.52;100.00;102145.97;4915906;29;20035;-89
2023/05/02 03:55:15;;;;;;;12.88;5.88;;;;;;;10.48;100.00;102136.50;4915696;29;20115;-89
2023/05/02 03:57:41;;;;;;;17.60;6.20;;;;;;;10.51;100.00;102151.16;4899880;29;20469;-89
2023/05/02 04:00:07;;;;;;;14.55;6.07;;;;;;;10.48;100.00;102144.28;4916426;29;20110;-90
2023/05/02 04:02:32;;;;;;;15.75;6.20;;;;;;;10.48;100.00;102152.06;4914743;29;20032;-89
2023/05/02 04:04:58;;;;;;;13.02;5.72;;;;;;;10.46;100.00;102160.69;4915591;29;20032;-89
2023/05/02 04:07:24;;;;;;;13.15;5.25;;;;;;;10.38;100.00;102158.09;4919709;29;20040;-90
2023/05/02 04:09:50;;;;;;;7.57;4.45;;;;;;;10.30;100.00;102173.66;4914502;29;20031;-89
2023/05/02 04:12:16;;;;;;;8.57;3.28;;;;;;;10.22;100.00;102177.16;4915551;29;20066;-89
2023/05/02 04:14:41;;;;;;;8.18;3.53;;;;;;;10.15;100.00;102170.22;4914260;29;20035;-89
2023/05/02 04:17:06;;;;;;;9.32;3.22;;;;;;;10.09;100.00;102175.41;4901745;29;20038;-90
2023/05/02 04:19:33;;;;;;;8.02;3.20;;;;;;;10.02;100.00;102174.53;4916101;29;20138;-89
2023/05/02 04:21:58;;;;;;;8.65;2.90;;;;;;;9.98;100.00;102184.88;4915284;29;20567;-89
2023/05/02 04:24:24;;;;;;;8.35;2.90;;;;;;;9.96;100.00;102191.81;4901964;29;20031;-88
2023/05/02 04:26:49;;;;;;;6.97;3.08;;;;;;;9.95;100.00;102193.53;4915243;29;20485;-89
2023/05/02 04:29:15;;;;;;;7.30;2.65;;;;;;;9.91;100.00;102197.84;4917117;29;20102;-89
2023/05/02 04:31:41;;;;;;;6.70;2.50;;;;;;;9.91;100.00;102203.00;4915351;29;20032;-89
2023/05/02 04:34:06;;;;;;;7.18;2.60;;;;;;;9.87;98.55;102205.59;4898521;29;20124;-90
2023/05/02 04:36:32;;;;;;;7.35;2.70;;;;;;;9.82;98.13;102208.22;4916770;29;20570;-89
2023/05/02 04:38:58;;;;;;;6.95;2.60;;;;;;;9.80;97.78;102215.09;4915357;29;20044;-89
2023/05/02 04:41:23;;;;;;;4.90;2.50;;;;;;;9.80;98.26;102216.81;4914400;29;20083;-90
2023/05/02 04:43:49;;;;;;;6.40;2.55;;;;;;;9.82;99.36;102217.69;4914526;29;20040;-89
2023/05/02 04:46:16;;;;;;;7.43;2.80;;;;;;;9.83;99.98;102222.84;4896696;29;20020;-89
2023/05/02 04:48:41;;;;;;;5.53;2.55;;;;;;;9.79;97.10;102228.03;4900078;29;20434;-89
2023/05/02 04:51:09;;;;;;;7.35;2.65;;;;;;;9.80;99.71;102229.78;4901213;29;20525;-90
2023/05/02 04:53:34;;;;;;;7.72;2.42;;;;;;;9.79;99.20;102234.09;4899665;29;21449;-90
2023/05/02 04:56:00;;;;;;;9.43;2.60;;;;;;;9.82;99.59;102228.06;4914437;29;20531;-90
2023/05/02 04:58:25;;;;;;;6.88;2.47;;;;;;;9.87;99.13;102236.69;4900509;29;20408;-88
2023/05/02 05:00:51;;;;;;;6.75;2.42;;;;;;;9.91;100.00;102236.69;4917395;29;20160;-87
2023/05/02 05:03:16;;;;;;;6.90;2.35;;;;;;;9.95;99.54;102247.94;4917638;29;20031;-89
2023/05/02 05:05:43;;;;;;;5.70;2.55;;;;;;;9.95;99.26;102240.16;4898674;29;20046;-89
2023/05/02 05:08:09;;;;;;;6.60;2.30;;;;;;;9.98;99.98;102250.50;4916713;29;20024;-89
2023/05/02 05:10:34;;;;;;;6.05;2.50;;;;;;;10.06;98.75;102263.47;4916825;29;20027;-89
2023/05/02 05:13:00;;;;;;;6.97;2.15;;;;;;;10.05;97.73;102254.84;4915901;29;20024;-89
2023/05/02 05:15:26;;;;;;;7.60;2.27;;;;;;;10.11;97.88;102264.34;4913939;29;20926;-89
2023/05/02 05:17:51;;;;;;;8.43;2.50;;;;;;;10.11;96.92;102267.78;4917168;29;20288;-89
2023/05/02 05:20:17;;;;;;;7.53;2.47;;;;;;;10.12;97.59;102264.34;4900746;29;20110;-89
2023/05/02 05:22:42;;;;;;;6.97;2.35;;;;;;;10.12;94.42;102269.53;4916386;29;20032;-89
2023/05/02 05:25:08;;;;;;;7.25;2.35;;;;;;;10.15;94.75;102272.13;4917541;29;20056;-89
2023/05/02 05:27:34;;;;;;;7.45;2.10;;;;;;;10.12;93.30;102277.28;4915309;29;20044;-89
2023/05/02 05:30:00;;;;;;;7.50;2.67;;;;;;;10.10;94.38;102284.19;4898720;29;20555;-89
2023/05/02 05:32:26;;;;;;;7.18;2.20;;;;;;;10.16;94.73;102288.53;4916458;29;20031;-89
2023/05/02 05:34:52;;;;;;;6.72;2.40;;;;;;;10.21;95.01;102290.31;4914963;29;20074;-90
2023/05/02 05:37:18;;;;;;;7.25;2.50;;;;;;;10.30;93.84;102289.47;4913833;29;20028;-89
2023/05/02 05:39:43;;;;;;;7.40;2.17;;;;;;;10.35;89.53;102294.63;4906593;29;20067;-89
2023/05/02 05:42:08;;;;;;;7.13;2.40;;;;;;;10.36;90.18;102291.19;4916318;29;20032;-90
2023/05/02 05:44:35;;;;;;;6.93;2.60;;;;;;;10.43;91.64;102296.38;4917228;29;20315;-89
2023/05/02 05:47:00;;;;;;;4.60;1.92;;;;;;;10.52;92.47;102306.72;4915421;29;20095;-89
2023/05/02 05:49:25;;;;;;;7.05;2.00;;;;;;;10.53;91.80;102295.50;4894478;29;20877;-90
2023/05/02 05:51:51;;;;;;;6.55;1.90;;;;;;;10.56;88.80;102308.47;4897697;29;20038;-90
2023/05/02 05:54:17;;;;;;;6.22;2.10;;;;;;;10.59;86.75;102313.63;4905327;29;20059;-89
2023/05/02 05:56:43;;;;;;;8.30;2.30;;;;;;;10.62;88.28;102321.44;4916576;29;20059;-89
2023/05/02 05:59:08;;;;;;;7.88;2.38;;;;;;;10.69;86.99;102314.50;4920500;29;20116;-89
2023/05/02 06:01:34;;;;;;;5.85;2.22;;;;;;;10.96;88.58;102319.66;4902334;29;20029;-89
2023/05/02 06:04:01;;;;;;;7.03;2.20;;;;;;;10.98;87.51;102323.13;4918162;29;20074;-90
2023/05/02 06:06:27;;;;;;;8.70;2.20;;;;;;;10.88;84.52;102323.13;4902918;29;20118;-90
2023/05/02 06:08:53;;;;;;;7.45;2.40;;;;;;;10.85;86.27;102331.78;4917526;29;20067;-88
2023/05/02 06:11:18;;;;;;;6.32;2.30;;;;;;;10.78;87.22;102330.03;4913630;29;20481;-87
2023/05/02 06:13:44;;;;;;;8.35;2.70;;;;;;;10.95;86.86;102330.91;4916365;29;20024;-88
2023/05/02 06:16:09;;;;;;;7.75;2.35;;;;;;;11.07;85.55;102336.06;4915367;29;20031;-88
2023/05/02 06:18:35;;;;;;;8.57;2.40;;;;;;;11.09;86.57;102349.06;4917931;29;20564;-89
2023/05/02 06:21:04;;;;;;;5.03;2.28;;;;;;;11.06;84.99;102339.53;4900897;29;20039;-88
2023/05/02 06:23:31;;;;;;;8.30;2.42;;;;;;;10.96;85.82;102335.25;4918590;29;20114;-89
2023/05/02 06:26:01;;;;;;;8.57;2.72;;;;;;;10.93;84.88;102349.94;4917297;29;20028;-89
2023/05/02 06:28:27;;;;;;;10.30;2.40;;;;;;;10.91;86.00;102355.13;4915857;29;20039;-89
2023/05/02 06:31:01;;;;;;;5.05;2.40;;;;;;;10.88;87.25;102357.72;4915166;29;20665;-89
2023/05/02 06:33:28;;;;;;;7.30;2.30;;;;;;;10.88;86.68;102372.41;4914716;29;20050;-89
2023/05/02 06:35:54;;;;;;;9.55;2.70;;;;;;;10.86;86.90;102374.16;4899412;29;20035;-88
2023/05/02 06:38:19;;;;;;;8.38;2.78;;;;;;;10.80;88.39;102380.19;4914399;29;20028;-88
2023/05/02 06:40:48;;;;;;;9.27;2.60;;;;;;;10.76;89.61;102378.47;4913275;29;20035;-89
2023/05/02 06:43:14;;;;;;;8.98;2.75;;;;;;;10.70;87.05;102381.09;4915335;29;20493;-88
2023/05/02 06:45:40;;;;;;;10.52;2.78;;;;;;;10.73;87.77;102398.34;4901590;29;20493;-88
2023/05/02 06:48:06;;;;;;;13.43;2.80;;;;;;;10.75;87.83;102391.44;4916884;29;20038;-89
2023/05/02 06:50:32;;;;;;;9.63;2.88;;;;;;;10.77;86.20;102398.38;4918333;29;20119;-89
2023/05/02 06:52:58;;;;;;;7.30;3.08;;;;;;;10.74;86.64;102400.09;4901117;29;20126;-89
2023/05/02 06:55:23;;;;;;;9.45;3.28;;;;;;;10.75;86.05;102402.69;4917776;29;20047;-89
2023/05/02 06:57:49;;;;;;;7.93;3.10;;;;;;;10.79;87.34;102399.22;4900072;29;20099;-90
2023/05/02 07:00:18;;;;;;;7.80;3.03;;;;;;;10.85;86.16;102404.41;4905614;29;20043;-89
2023/05/02 07:02:45;;;;;;;13.43;3.15;;;;;;;10.99;85.40;102412.19;4917493;29;20051;-90
2023/05/02 07:05:11;;;;;;;11.68;3.03;;;;;;;11.32;86.93;102408.72;4906194;29;20619;-90
2023/05/02 07:07:36;;;;;;;8.27;3.00;;;;;;;11.73;84.81;102404.28;4918022;29;20503;-89
2023/05/02 07:10:02;;;;;;;9.38;2.97;;;;;;;11.70;79.70;102406.00;4914862;29;20158;-89
2023/05/02 07:12:28;;;;;;;10.30;2.88;;;;;;;11.61;80.37;102425.09;4906297;29;20032;-89
2023/05/02 07:14:53;;;;;;;6.95;3.05;;;;;;;11.44;82.57;102424.28;4917370;29;20032;-91
2023/05/02 07:17:19;;;;;;;10.95;2.78;;;;;;;11.26;79.75;102437.28;4916669;29;20031;-92
2023/05/02 07:19:45;;;;;;;13.98;3.30;;;;;;;11.01;77.04;102437.28;4899129;29;20119;-92
2023/05/02 07:22:10;;;;;;;7.80;2.97;;;;;;;10.90;81.40;102440.75;4898090;29;20031;-89
2023/05/02 07:24:40;;;;;;;9.63;3.00;;;;;;;10.76;80.28;102445.91;4915748;29;20162;-89
2023/05/02 07:27:06;;;;;;;12.15;3.72;;;;;;;10.79;83.47;102445.91;4917964;29;20069;-89
2023/05/02 07:29:31;;;;;;;13.68;3.60;;;;;;;10.89;80.24;102454.56;4916584;29;20051;-91
2023/05/02 07:31:57;;;;;;;11.05;3.50;;;;;;;11.06;79.20;102455.44;4915421;29;20046;-91
2023/05/02 07:34:22;;;;;;;15.43;4.00;;;;;;;11.14;78.43;102460.63;4915913;29;20032;-89
2023/05/02 07:36:47;;;;;;;13.27;3.50;;;;;;;11.04;76.91;102452.88;4897978;29;20302;-89
2023/05/02 07:39:12;;;;;;;7.80;2.63;;;;;;;10.96;74.56;102474.47;4915492;29;20295;-89
2023/05/02 07:41:38;;;;;;;8.60;2.70;;;;;;;10.85;74.80;102466.66;4897964;29;20032;-89
2023/05/02 07:44:03;;;;;;;7.68;2.83;;;;;;;10.78;74.12;102466.69;4914510;29;20499;-89
2023/05/02 07:46:29;;;;;;;8.82;2.38;;;;;;;10.92;77.69;102467.53;4915043;29;20031;-89
2023/05/02 07:48:54;;;;;;;11.45;2.60;;;;;;;11.21;74.28;102475.34;4918045;29;20036;-89
2023/05/02 07:51:20;;;;;;;10.20;2.90;;;;;;;11.41;73.04;102477.06;4914189;29;20744;-90
2023/05/02 07:53:49;;;;;;;8.00;2.65;;;;;;;11.60;73.09;102480.50;4897852;29;20119;-90
2023/05/02 07:56:14;;;;;;;12.55;3.10;;;;;;;11.75;73.28;102479.63;4916136;29;20020;-89
2023/05/02 07:58:39;;;;;;;8.63;2.72;;;;;;;11.87;72.16;102488.25;4914557;29;20079;-88
2023/05/02 08:01:05;;;;;;;10.65;2.88;;;;;;;11.96;74.96;102489.97;4913916;29;20052;-89
2023/05/02 08:03:30;;;;;;;11.23;3.60;;;;;;;12.07;72.34;102482.16;4915173;29;20059;-89
2023/05/02 08:05:56;;;;;;;14.30;3.33;;;;;;;12.33;71.39;102490.72;4897651;29;20106;-89
2023/05/02 08:08:22;;;;;;;10.93;3.65;;;;;;;12.28;68.51;102482.06;4906326;29;20525;-89
2023/05/02 08:10:49;;;;;;;13.00;2.85;;;;;;;12.15;67.93;102490.75;4900266;29;20028;-89
2023/05/02 08:13:14;;;;;;;10.70;3.00;;;;;;;12.08;68.13;102494.25;4912295;29;20126;-89
2023/05/02 08:15:40;;;;;;;9.82;2.67;;;;;;;12.01;69.56;102490.81;4912116;29;20032;-90
2023/05/02 08:18:05;;;;;;;6.93;2.45;;;;;;;12.04;69.00;102502.94;4916296;29;20039;-89
2023/05/02 08:20:31;;;;;;;6.93;2.60;;;;;;;12.01;67.90;102493.41;4913967;29;20437;-90
2023/05/02 08:22:56;;;;;;;6.20;2.20;;;;;;;12.09;64.86;102499.47;4915894;29;20426;-90
2023/05/02 08:25:21;;;;;;;7.28;2.20;;;;;;;12.14;63.63;102502.06;4916231;29;20115;-90
2023/05/02 08:27:47;;;;;;;7.20;2.33;;;;;;;12.29;65.10;102512.38;4918580;29;20031;-90
2023/05/02 08:30:13;;;;;;;8.65;2.45;;;;;;;12.45;65.51;102511.44;4916562;29;20303;-90
2023/05/02 08:32:38;;;;;;;5.60;2.03;;;;;;;12.68;66.09;102510.47;4916240;29;20068;-90
2023/05/02 08:35:04;;;;;;;7.18;2.25;;;;;;;12.91;65.10;102516.38;4919212;29;20118;-90
2023/05/02 08:37:30;;;;;;;9.00;2.30;;;;;;;13.21;62.38;102512.75;4919967;29;20054;-89
2023/05/02 08:39:55;;;;;;;7.00;2.30;;;;;;;13.38;64.25;102509.13;4916753;29;20028;-90
2023/05/02 08:42:21;;;;;;;7.18;2.55;;;;;;;13.61;65.03;102508.03;4918603;29;20019;-90
2023/05/02 08:44:47;;;;;;;6.03;2.58;;;;;;;13.79;59.48;102523.50;4916853;29;20480;-91
2023/05/02 08:47:14;;;;;;;7.18;2.65;;;;;;;13.72;56.99;102514.00;4914360;29;20047;-90
2023/05/02 08:49:41;;;;;;;8.80;2.53;;;;;;;13.64;58.04;102514.13;4914976;29;20678;-91
2023/05/02 08:52:08;;;;;;;7.82;2.10;;;;;;;13.61;58.32;102526.28;4914736;29;20508;-90
2023/05/02 08:54:36;;;;;;;10.40;2.45;;;;;;;13.62;59.12;102518.47;4918895;29;20206;-91
2023/05/02 08:57:03;;;;;;;6.53;2.35;;;;;;;13.62;60.61;102526.28;4914295;29;20239;-90
2023/05/02 08:59:28;;;;;;;5.78;2.17;;;;;;;13.38;57.02;102516.94;4919933;29;20099;-90
2023/05/02 09:01:59;;;;;;;4.68;2.22;;;;;;;13.34;57.69;102530.00;4917836;29;20032;-90
2023/05/02 09:04:31;;;;;;;5.70;2.10;;;;;;;13.31;59.07;102530.88;4920337;29;20158;-90
2023/05/02 09:06:57;;;;;;;6.07;2.55;;;;;;;13.55;60.88;102521.13;4918368;29;20028;-91
2023/05/02 09:09:22;;;;;;;6.38;2.20;;;;;;;13.84;58.39;102535.63;4919433;29;20140;-91
2023/05/02 09:11:49;;;;;;;7.13;2.45;;;;;;;13.76;59.78;102542.66;4916900;29;20048;-91
2023/05/02 09:14:16;;;;;;;9.25;2.60;;;;;;;13.58;57.81;102541.97;4917046;29;20079;-91
2023/05/02 09:16:42;;;;;;;8.63;2.83;;;;;;;13.39;56.18;102556.88;4908602;29;20024;-90
2023/05/02 09:19:08;;;;;;;7.70;2.90;;;;;;;13.23;56.62;102557.88;4918034;29;20032;-91
2023/05/02 09:21:38;;;;;;;10.00;3.33;;;;;;;13.32;61.64;102557.78;4922999;29;20765;-90
2023/05/02 09:24:18;;;;;;;8.45;3.28;;;;;;;13.66;65.47;102574.88;4920892;29;20032;-90
2023/05/02 09:26:59;;;;;;;8.50;3.28;;;;;;;13.82;60.06;102573.00;4916978;29;20090;-90
2023/05/02 09:29:27;;;;;;;8.95;2.95;;;;;;;13.87;63.46;102572.94;4908362;29;20036;-87
2023/05/02 09:31:53;;;;;;;9.82;3.50;;;;;;;13.91;60.62;102580.75;4919370;29;20127;-88
2023/05/02 09:34:18;;;;;;;9.82;2.88;;;;;;;13.62;56.07;102588.81;4917740;29;20180;-87
2023/05/02 09:36:46;;;;;;;9.30;3.05;;;;;;;13.43;59.23;102590.72;4916046;29;20036;-89
2023/05/02 09:39:16;;;;;;;9.15;2.88;;;;;;;13.37;60.42;102588.13;4915988;29;20040;-89
2023/05/02 09:41:47;;;;;;;7.60;2.92;;;;;;;13.49;59.96;102591.53;4900219;29;20039;-89
2023/05/02 09:44:14;;;;;;;8.65;3.35;;;;;;;13.40;58.04;102592.47;4917041;29;20790;-89
2023/05/02 09:46:41;;;;;;;8.18;2.83;;;;;;;13.12;58.34;102590.88;4903586;29;20031;-89
2023/05/02 09:49:08;;;;;;;7.15;2.80;;;;;;;12.81;58.09;102592.81;4901475;29;20032;-88
2023/05/02 09:51:35;;;;;;;6.40;2.83;;;;;;;12.60;59.08;102599.84;4918867;29;20051;-88
2023/05/02 09:54:00;;;;;;;9.15;3.03;;;;;;;12.76;58.94;102599.78;4918796;29;20032;-88
2023/05/02 09:56:26;;;;;;;10.20;3.03;;;;;;;13.13;58.31;102598.72;4918024;29;20040;-90
2023/05/02 09:59:10;;;;;;;6.93;2.88;;;;;;;13.53;58.29;102599.31;4917224;29;20051;-89
2023/05/02 10:01:35;;;;;;;9.57;2.92;;;;;;;13.61;56.56;102594.03;4917663;29;20023;-90
2023/05/02 10:04:03;;;;;;;7.32;3.40;;;;;;;13.38;59.38;102599.41;4917484;29;20111;-89
2023/05/02 10:06:31;;;;;;;6.80;2.97;;;;;;;13.20;59.11;102600.41;4916182;29;20079;-88
2023/05/02 10:08:58;;;;;;;8.18;3.10;;;;;;;13.01;60.14;102601.38;4918074;29;20116;-87
2023/05/02 10:11:24;;;;;;;8.23;2.90;;;;;;;12.90;60.25;102600.53;4918760;29;20607;-89
2023/05/02 10:13:51;;;;;;;9.07;2.60;;;;;;;12.82;58.39;102607.56;4901632;29;20023;-89
2023/05/02 10:16:27;;;;;;;8.25;2.58;;;;;;;12.90;57.21;102614.44;4917654;29;20095;-88
2023/05/02 10:19:22;;;;;;;6.28;2.85;;;;;;;13.25;59.95;102605.59;4916936;29;20065;-87
2023/05/02 10:21:49;;;;;;;8.63;3.00;;;;;;;13.62;55.22;102609.66;4913971;29;20047;-86
2023/05/02 10:24:14;;;;;;;7.88;3.15;;;;;;;13.75;53.06;102613.03;4918071;29;20074;-86
2023/05/02 10:26:40;;;;;;;5.70;3.05;;;;;;;13.75;51.93;102613.03;4901434;29;20040;-86
2023/05/02 10:29:05;;;;;;;7.13;2.92;;;;;;;13.66;55.91;102603.53;4909059;29;20042;-88
2023/05/02 10:31:36;;;;;;;6.47;3.00;;;;;;;13.62;56.34;102607.06;4904493;29;20040;-89
2023/05/02 10:34:02;;;;;;;5.40;2.78;;;;;;;13.82;56.92;102612.09;4899782;29;20059;-88
2023/05/02 10:36:30;;;;;;;11.52;3.20;;;;;;;14.18;55.46;102603.94;4901458;29;20050;-88
2023/05/02 10:38:55;;;;;;;6.50;2.70;;;;;;;14.56;53.90;102600.06;4916769;29;21122;-88
2023/05/02 10:41:25;;;;;;;7.93;2.97;;;;;;;14.72;51.55;102611.19;4917505;29;20461;-88
2023/05/02 10:43:51;;;;;;;9.20;3.60;;;;;;;14.63;51.98;102610.41;4917399;29;20505;-88
2023/05/02 10:46:34;;;;;;;7.78;3.25;;;;;;;14.35;52.40;102603.75;4899250;29;20028;-88
2023/05/02 10:49:05;;;;;;;8.25;2.92;;;;;;;14.09;54.98;102614.44;4916171;29;20051;-88
2023/05/02 10:51:31;;;;;;;7.15;3.25;;;;;;;13.87;51.64;102615.53;4901416;29;20469;-87
2023/05/02 10:54:16;;;;;;;9.98;3.60;;;;;;;13.85;55.71;102625.13;4919057;29;20028;-87
2023/05/02 10:57:02;;;;;;;6.47;3.30;;;;;;;14.09;53.87;102611.84;4917185;29;20123;-89
2023/05/02 10:59:39;;;;;;;8.15;3.25;;;;;;;14.16;52.14;102610.03;4905373;29;20491;-89
2023/05/02 11:02:26;;;;;;;8.88;3.22;;;;;;;14.16;50.91;102617.88;4916534;29;20512;-88
2023/05/02 11:05:02;;;;;;;7.38;3.30;;;;;;;14.24;52.40;102622.13;4916240;29;20032;-87
2023/05/02 11:07:29;;;;;;;7.03;3.50;;;;;;;14.19;49.16;102626.50;4902820;29;20027;-88
2023/05/02 11:10:16;;;;;;;7.38;3.10;;;;;;;13.96;50.17;102622.41;4918384;29;20036;-87
2023/05/02 11:12:55;;;;;;;7.07;3.33;;;;;;;13.81;54.28;102623.41;4916338;29;20032;-87
2023/05/02 11:15:26;;;;;;;8.38;3.33;;;;;;;13.91;53.29;102627.69;4906286;29;20035;-87
2023/05/02 11:18:07;;;;;;;5.65;3.08;;;;;;;13.96;51.05;102635.44;4918692;29;20039;-87
2023/05/02 11:20:44;;;;;;;7.30;2.90;;;;;;;14.10;50.34;102637.06;4917381;29;20068;-87